• Join FlightAware (Why Join?)
  • Login
  • US Flag 
12:32AM EDT


 

Airport Tracker/Info


-or-


 

Live Flight TrackerFlight Track Log ✈ AAL1071 ✈ 11-Jun-2013 ✈ KMIA - MDPC / PUJ

Flight Track Log - Related Links

Times and Time Zones

All times are in EDT time to prevent confusion due to time zone crossing. See the AAL1071 flight status page for this flight to view local times or setup timezone preferences in your user account.

Time Position Orientation Groundspeed Altitude Reporting Facility
EDT Latitude Longitude Course Direction KTS MPH feet Rate Location/Type
10:09AM 25.7986 -80.2606 104° East 187 215 1,000  Level Miami Center
10:09AM 25.7925 -80.2444 113° Southeast 176 203 2,000 1,620 Climbing Miami Center
10:10AM 25.7811 -80.2025 107° East 208 239 2,900 1,560 Climbing Miami Center
10:11AM 25.6842 -79.9122 104° East  Level FlightAware Approximate
10:11AM 25.7661 -80.1258 102° East 266 306 4,900  Level Miami Center
10:12AM 25.6549 -79.7863 105° East  Level FlightAware Approximate
10:12AM 25.7447 -80.0447 106° East 271 312 6,500  Level Miami Center
10:13AM 25.6333 -79.6596 90° East  Level FlightAware Approximate
10:13AM 25.7236 -79.9564 105° East 271 312 9,200  Level Miami Center
10:14AM 25.6074 -79.5332 104° East  Level FlightAware Approximate
10:14AM 25.7025 -79.8706 105° East 271 312 10,900  Level Miami Center
10:15AM 25.6775 -79.7686 105° East 306 352 12,400 1,800 Climbing Miami Center
10:16AM 25.6503 -79.6594 105° East 343 395 14,600 2,280 Climbing Miami Center
10:17AM 25.6231 -79.5461 105° East 363 418 17,000 2,100 Climbing Miami Center
10:18AM 25.5919 -79.4278 106° East 376 433 18,800 1,860 Climbing Miami Center
10:19AM 25.5606 -79.3075 106° East 394 453 20,800 1,860 Climbing Miami Center
10:20AM 25.5333 -79.1825 104° East 406 467 22,600 1,740 Climbing Miami Center
10:21AM 25.5039 -79.0508 104° East 425 489 24,300 1,500 Climbing Miami Center
10:22AM 25.4700 -78.9350 108° East 431 496 25,700 1,380 Climbing Miami Center
10:23AM 25.4469 -78.7967 100° East 442 509 27,100 1,260 Climbing Miami Center
10:24AM 25.4089 -78.6581 107° East 452 520 28,300 1,140 Climbing Miami Center
10:25AM 25.3792 -78.5172 103° East 458 527 29,400 1,080 Climbing Miami Center
10:26AM 25.3411 -78.3717 106° East 470 541 30,500 1,260 Climbing Miami Center
10:27AM 25.2756 -78.2444 120° Southeast 476 548 32,000 1,380 Climbing Miami Center
10:28AM 25.1950 -78.1219 126° Southeast 482 555 33,300 1,140 Climbing Miami Center
10:29AM 25.1083 -77.9903 126° Southeast 482 555 34,300 900 Climbing Miami Center
10:30AM 25.0256 -77.8703 127° Southeast 482 555 35,100 900 Climbing Miami Center
10:31AM 24.9450 -77.7528 127° Southeast 487 560 36,200 900 Climbing Miami Center
10:32AM 24.8703 -77.6422 127° Southeast 492 566 37,000 360 Climbing Miami Center
10:33AM 24.7894 -77.5203 126° Southeast 492 566 37,000  Level Miami Center
10:34AM 24.7103 -77.4011 126° Southeast 492 566 37,000  Level Miami Center
10:35AM 24.6314 -77.2817 126° Southeast 486 559 37,000  Level Miami Center
10:36AM 24.5522 -77.1628 126° Southeast 481 554 37,000  Level Miami Center
10:37AM 24.4625 -77.0347 128° Southeast 481 554 37,000  Level Miami Center
10:38AM 24.3833 -76.9158 126° Southeast 481 554 37,000  Level Miami Center
10:39AM 24.3039 -76.7972 126° Southeast 482 555 37,000  Level Miami Center
10:40AM 24.2242 -76.6833 127° Southeast 482 555 37,000  Level Miami Center
10:41AM 24.1467 -76.5672 126° Southeast 482 555 37,000  Level Miami Center
10:42AM 24.0650 -76.4492 127° Southeast 482 555 37,000  Level Miami Center
10:43AM 23.9872 -76.3336 126° Southeast 482 555 37,000  Level Miami Center
10:44AM 23.9158 -76.2292 127° Southeast 482 555 37,000  Level Miami Center
10:45AM 23.8339 -76.1139 128° Southeast 482 555 37,000  Level Miami Center
10:46AM 23.7536 -75.9961 127° Southeast 482 555 37,000  Level Miami Center
10:47AM 23.6714 -75.8789 127° Southeast 482 555 37,000  Level Miami Center
10:48AM 23.5911 -75.7569 126° Southeast 487 560 37,000  Level Miami Center
10:49AM 23.5336 -75.6169 114° Southeast 493 567 37,000  Level Miami Center
10:50AM 23.4719 -75.4908 118° Southeast 488 562 37,000  Level Miami Center
10:51AM 23.4144 -75.3600 116° Southeast 483 556 37,000  Level Miami Center
10:52AM 23.3481 -75.2183 117° Southeast 478 550 37,000  Level Miami Center
10:53AM 23.2881 -75.0833 116° Southeast 478 550 37,000  Level Miami Center
10:54AM 23.2300 -74.9553 116° Southeast 478 550 37,000  Level Miami Center
10:55AM 23.1697 -74.8250 117° Southeast 483 556 37,000  Level Miami Center
10:56AM 23.1117 -74.6972 116° Southeast 477 549 37,000  Level Miami Center
10:57AM 23.0553 -74.5694 116° Southeast 477 549 37,000  Level Miami Center
10:58AM 22.9969 -74.4419 116° Southeast 472 543 37,000  Level Miami Center
10:59AM 22.9386 -74.3167 117° Southeast 467 537 37,000  Level Miami Center
11:00AM 22.8778 -74.1917 118° Southeast 467 537 37,000  Level Miami Center
11:01AM 22.8211 -74.0622 115° Southeast 467 537 37,000  Level Miami Center
11:02AM 22.7644 -73.9372 116° Southeast 462 532 37,000  Level Miami Center
11:03AM 22.7056 -73.8103 117° Southeast 462 532 37,000  Level Miami Center
11:04AM 22.6444 -73.6836 118° Southeast 462 532 37,000  Level Miami Center
11:05AM 22.5856 -73.5567 117° Southeast 462 532 37,000  Level Miami Center
11:06AM 22.5264 -73.4325 117° Southeast 467 537 37,000  Level Miami Center
11:07AM 22.4772 -73.3033 112° Southeast 461 531 37,000  Level Miami Center
11:08AM 22.4139 -73.1817 119° Southeast 461 531 37,000  Level Miami Center
11:09AM 22.3586 -73.0597 116° Southeast 461 531 37,000  Level Miami Center
11:10AM 22.3033 -72.9378 116° Southeast 456 525 37,000  Level Miami Center
11:11AM 22.2853 -72.8039 98° East 450 518 37,000  Level Miami Center
11:12AM 22.2794 -72.6672 93° East 450 518 37,000  Level Miami Center
11:13AM 22.2778 -72.5303 91° East 445 512 37,000  Level Miami Center
11:14AM 22.2758 -72.3914 91° East 445 512 37,000  Level Miami Center
11:15AM 22.2739 -72.2547 91° East 445 512 37,000  Level Miami Center
11:16AM 22.2717 -72.1158 91° East 450 518 37,000  Level Miami Center
11:17AM 22.2653 -71.9792 93° East 456 525 37,000  Level Miami Center
11:18AM 22.2522 -71.8428 96° East 456 525 37,000  Level Miami Center
11:19AM 22.2228 -71.7094 103° East 461 531 37,000  Level Miami Center
11:20AM 22.1917 -71.5897 106° East 461 531 37,000  Level Miami Center
11:21AM 22.1536 -71.4569 107° East 461 531 37,000  Level Miami Center
11:22AM 22.1114 -71.3286 110° East 461 531 37,000  Level Miami Center
11:23AM 22.0692 -71.1983 109° East 456 525 37,000  Level Miami Center
11:24AM 22.0081 -71.0758 118° Southeast 456 525 37,000  Level Miami Center
11:25AM 21.9331 -70.9650 126° Southeast 456 525 37,000  Level Miami Center
11:26AM 21.8558 -70.8567 128° Southeast 461 531 37,000  Level Miami Center
11:27AM 21.7644 -70.7625 136° Southeast 461 531 37,000  Level Miami Center
11:28AM 21.6553 -70.6917 149° Southeast 452 520 37,000  Level Miami Center
11:29AM 21.5442 -70.6278 152° Southeast 452 520 37,000  Level Miami Center
11:30AM 21.4350 -70.5617 151° Southeast 452 520 37,000  Level Miami Center
11:31AM 21.3283 -70.5022 153° Southeast 446 513 37,000  Level Miami Center
11:32AM 21.2214 -70.4381 151° Southeast 446 513 37,000  Level Miami Center
11:33AM 21.1061 -70.3725 152° Southeast 441 507 37,000  Level Miami Center
11:34AM 21.0036 -70.3108 151° Southeast 441 507 37,000  Level Miami Center
11:35AM 20.8967 -70.2494 152° Southeast 436 502 37,000  Level Miami Center
11:36AM 20.7919 -70.1858 150° Southeast 431 496 37,000  Level Miami Center
11:37AM 20.6872 -70.1244 151° Southeast 426 490 37,000 -240 Level Miami Center
11:38AM 20.5847 -70.0675 153° Southeast 421 484 36,600 -660 Descending Miami Center
11:39AM 20.4778 -70.0044 151° Southeast 426 490 35,700 -960 Descending Miami Center
11:40AM 20.3708 -69.9433 152° Southeast 426 490 34,700 -960 Descending Miami Center
11:41AM 20.2658 -69.8803 151° Southeast 426 490 33,800 -1,440 Descending Miami Center
11:42AM 20.1631 -69.8169 150° Southeast 426 490 31,900 -2,220 Descending Miami Center
11:43AM 20.0586 -69.7606 153° Southeast 426 490 29,400 -2,340 Descending Miami Center
11:44AM 19.9622 -69.7039 151° Southeast 416 479 27,300 -1,560 Descending Miami Center
11:45AM 19.8817 -69.6267 138° Southeast 403 464 26,300 -1,020 Descending Miami Center
11:47AM 19.7245 -69.4737 134° Southeast  Level FlightAware Approximate
11:54AM 19.1317 -68.8817 137° Southeast  Level FlightAware Approximate
11:55AM 19.0470 -68.7970 137° Southeast  Level FlightAware Approximate
11:56AM 18.9590 -68.7164 140° Southeast  Level FlightAware Approximate
11:57AM 18.8703 -68.6366 140° Southeast  Level FlightAware Approximate
11:58AM 18.7856 -68.5522 137° Southeast  Level FlightAware Approximate
11:59AM 18.7010 -68.4677 137° Southeast  Level FlightAware Approximate
12:00PM 18.6103 -68.3915 128° Southeast  Level FlightAware Approximate
12:01PM 18.5674 -68.3634 128° Southeast  Level Estimated
12:02PM 18.5674 -68.3634 128° Southeast  Level Estimated
12:03PM 18.5674 -68.3634 128° Southeast  Level Estimated
12:04PM 18.5674 -68.3634 128° Southeast  Level Estimated
12:05PM 18.5674 -68.3634 128° Southeast  Level Estimated
12:06PM 18.5674 -68.3634 128° Southeast  Level Estimated
12:07PM 18.5674 -68.3634 128° Southeast  Level Estimated
12:08PM 18.5674 -68.3634 128° Southeast  Level Estimated
12:09PM 18.5674 -68.3634 128° Southeast  Level Estimated
12:10PM 18.5674 -68.3634 128° Southeast  Level Estimated